Time;durP1;ratioP1;P1;durP2;ratioP2;P2;SDS_P1;SDS_P2;PMS_P1;PMS_P2;Temp;Humidity;BMP_temperature;BMP_pressure;BME280_temperature;BME280_humidity;BME280_pressure;Samples;Min_cycle;Max_cycle;Signal;HPM_P1;HPM_P2
2022/01/08 00:02:20;;;;;;;11.80;6.60;;;;;;;;;;6240663;22;20009;-93
2022/01/08 00:04:48;;;;;;;11.57;6.85;;;;;;;;;;6240427;22;20032;-95
2022/01/08 00:07:46;;;;;;;12.07;7.15;;;;;;;;;;6241236;23;20028;-94
2022/01/08 00:10:13;;;;;;;9.88;7.57;;;;;;;;;;6224210;22;20011;-94
2022/01/08 00:12:42;;;;;;;11.68;7.43;;;;;;;;;;6242583;22;20028;-94
2022/01/08 00:15:09;;;;;;;15.85;7.68;;;;;;;;;;6242973;22;20080;-94
2022/01/08 00:17:36;;;;;;;10.05;7.57;;;;;;;;;;6243096;22;20004;-95
2022/01/08 00:20:05;;;;;;;13.73;8.43;;;;;;;;;;6242588;22;20024;-93
2022/01/08 00:22:33;;;;;;;15.68;8.32;;;;;;;;;;6242407;22;20064;-94
2022/01/08 00:25:03;;;;;;;16.60;9.13;;;;;;;;;;6242492;22;20008;-94
2022/01/08 00:27:30;;;;;;;13.45;9.18;;;;;;;;;;6242415;22;20008;-93
2022/01/08 00:29:57;;;;;;;19.77;10.30;;;;;;;;;;6242512;22;20094;-94
2022/01/08 00:32:28;;;;;;;19.75;10.10;;;;;;;;;;6241924;22;20080;-94
2022/01/08 00:34:55;;;;;;;15.60;10.60;;;;;;;;;;6242139;22;20031;-94
2022/01/08 00:47:29;;;;;;;18.98;12.23;;;;;;;;;;6242908;22;20039;-94
2022/01/08 00:49:57;;;;;;;20.27;12.05;;;;;;;;;;6244723;22;20010;-93
2022/01/08 00:59:38;;;;;;;23.20;13.23;;;;;;;;;;6273434;22;20022;-94
2022/01/08 01:02:10;;;;;;;23.05;12.82;;;;;;;;;;6272835;22;20008;-93
2022/01/08 01:04:39;;;;;;;25.42;13.70;;;;;;;;;;6272856;22;20020;-93
2022/01/08 01:07:11;;;;;;;25.73;14.63;;;;;;;;;;6272636;22;20022;-94
2022/01/08 01:09:40;;;;;;;24.65;13.85;;;;;;;;;;6272781;22;20008;-93
2022/01/08 01:12:14;;;;;;;21.85;13.30;;;;;;;;;;6272482;22;20034;-92
2022/01/08 01:15:06;;;;;;;25.67;15.02;;;;;;;;;;6272608;22;20018;-92
2022/01/08 01:17:33;;;;;;;25.10;13.68;;;;;;;;;;6273868;22;20019;-92
2022/01/08 01:20:00;;;;;;;28.13;15.70;;;;;;;;;;6274623;22;20034;-92
2022/01/08 01:22:47;;;;;;;30.33;14.95;;;;;;;;;;6274747;22;20011;-94
2022/01/08 01:25:19;;;;;;;25.42;14.60;;;;;;;;;;6274892;22;20030;-94
2022/01/08 01:28:06;;;;;;;28.88;16.00;;;;;;;;;;6274854;22;20005;-94
2022/01/08 01:48:21;;;;;;;32.50;18.75;;;;;;;;;;6275094;22;20008;-94
2022/01/08 01:51:20;;;;;;;35.38;19.50;;;;;;;;;;6274214;22;20060;-94
2022/01/08 01:53:48;;;;;;;43.78;18.35;;;;;;;;;;6274343;22;20007;-93
2022/01/08 01:56:18;;;;;;;37.92;21.80;;;;;;;;;;6274446;22;20008;-94
2022/01/08 02:05:29;;;;;;;37.95;20.52;;;;;;;;;;6275127;22;20082;-93
2022/01/08 02:08:03;;;;;;;38.58;21.73;;;;;;;;;;6273904;22;20024;-94
2022/01/08 02:10:31;;;;;;;45.95;21.80;;;;;;;;;;6274275;22;20042;-93
2022/01/08 02:12:58;;;;;;;38.40;21.80;;;;;;;;;;6274407;22;20047;-94
2022/01/08 02:15:25;;;;;;;35.25;21.42;;;;;;;;;;6274568;22;20064;-93
2022/01/08 02:17:57;;;;;;;34.38;20.90;;;;;;;;;;6273992;22;20004;-93
2022/01/08 02:20:24;;;;;;;32.10;19.30;;;;;;;;;;6273618;22;20007;-95
2022/01/08 02:23:00;;;;;;;34.55;20.65;;;;;;;;;;6274109;22;20008;-95
2022/01/08 02:25:27;;;;;;;31.63;19.70;;;;;;;;;;6274030;22;20014;-94
2022/01/08 02:27:55;;;;;;;35.90;19.10;;;;;;;;;;6273873;22;20009;-94
2022/01/08 02:30:22;;;;;;;35.92;19.48;;;;;;;;;;6274044;22;20059;-94
2022/01/08 02:32:50;;;;;;;32.67;18.10;;;;;;;;;;6273436;22;20030;-94
2022/01/08 02:35:21;;;;;;;31.55;18.70;;;;;;;;;;6273892;22;20027;-94
2022/01/08 02:37:51;;;;;;;34.78;19.08;;;;;;;;;;6274204;22;20044;-93
2022/01/08 02:40:19;;;;;;;33.75;19.65;;;;;;;;;;6273959;22;20152;-94
2022/01/08 02:43:04;;;;;;;39.65;21.15;;;;;;;;;;6273407;22;20600;-94
2022/01/08 02:45:31;;;;;;;43.28;21.75;;;;;;;;;;6273212;22;20028;-95
2022/01/08 02:48:00;;;;;;;38.00;21.88;;;;;;;;;;6273002;22;20034;-95
2022/01/08 02:50:33;;;;;;;39.85;21.33;;;;;;;;;;6273180;22;20051;-94
2022/01/08 02:53:04;;;;;;;37.67;21.40;;;;;;;;;;6273849;22;20053;-95
2022/01/08 02:55:33;;;;;;;37.72;21.58;;;;;;;;;;6273503;22;20018;-94
2022/01/08 02:58:01;;;;;;;38.00;21.38;;;;;;;;;;6273117;22;20034;-94
2022/01/08 03:00:28;;;;;;;38.30;21.88;;;;;;;;;;6273446;22;20012;-94
2022/01/08 03:02:57;;;;;;;31.77;19.85;;;;;;;;;;6273515;22;20004;-95
2022/01/08 03:05:31;;;;;;;39.28;21.88;;;;;;;;;;6273193;22;20077;-95
2022/01/08 03:08:00;;;;;;;39.75;21.63;;;;;;;;;;6273334;22;20026;-94
2022/01/08 03:10:27;;;;;;;45.00;23.40;;;;;;;;;;6273637;22;20028;-94
2022/01/08 03:12:54;;;;;;;39.15;22.15;;;;;;;;;;6248326;22;20008;-94
2022/01/08 03:15:21;;;;;;;41.65;21.88;;;;;;;;;;6273493;22;20068;-94
2022/01/08 03:17:52;;;;;;;39.17;20.90;;;;;;;;;;6273513;22;20004;-94
2022/01/08 03:20:21;;;;;;;40.60;21.55;;;;;;;;;;6272492;22;20080;-95
2022/01/08 03:22:48;;;;;;;39.53;21.35;;;;;;;;;;6272859;22;20070;-95
2022/01/08 03:25:16;;;;;;;37.38;20.83;;;;;;;;;;6272883;22;20063;-95
2022/01/08 03:27:43;;;;;;;39.95;21.50;;;;;;;;;;6272373;22;20016;-95
2022/01/08 03:30:10;;;;;;;40.55;21.25;;;;;;;;;;6272292;22;20046;-95
2022/01/08 03:32:38;;;;;;;36.72;19.67;;;;;;;;;;6272259;22;20012;-94
2022/01/08 03:35:05;;;;;;;33.05;18.98;;;;;;;;;;6272656;22;20039;-94
2022/01/08 03:37:32;;;;;;;34.92;19.83;;;;;;;;;;6272118;22;20028;-92
2022/01/08 03:39:58;;;;;;;34.28;19.40;;;;;;;;;;6272849;22;20069;-93
2022/01/08 03:42:25;;;;;;;41.33;20.52;;;;;;;;;;6272535;22;20036;-93
2022/01/08 03:44:52;;;;;;;35.72;18.90;;;;;;;;;;6272024;22;20024;-93
2022/01/08 03:49:56;;;;;;;40.20;19.20;;;;;;;;;;6272901;22;20018;-93
2022/01/08 03:52:24;;;;;;;38.10;20.70;;;;;;;;;;6271808;22;20004;-94
2022/01/08 03:54:51;;;;;;;47.40;21.08;;;;;;;;;;6272771;22;20087;-93
2022/01/08 03:57:19;;;;;;;41.80;20.88;;;;;;;;;;6272206;22;20008;-93
2022/01/08 03:59:47;;;;;;;39.78;21.17;;;;;;;;;;6271503;22;20008;-94
2022/01/08 04:02:13;;;;;;;36.22;19.38;;;;;;;;;;6271455;22;20038;-92
2022/01/08 04:05:05;;;;;;;39.28;19.48;;;;;;;;;;6272333;22;20074;-92
2022/01/08 04:07:32;;;;;;;37.28;18.73;;;;;;;;;;6272316;22;20012;-92
2022/01/08 04:09:59;;;;;;;36.50;18.98;;;;;;;;;;6272496;22;20127;-94
2022/01/08 04:12:36;;;;;;;29.65;19.08;;;;;;;;;;6272518;22;20055;-93
2022/01/08 04:15:08;;;;;;;36.05;20.27;;;;;;;;;;6272623;22;20023;-93
2022/01/08 04:17:35;;;;;;;39.50;20.48;;;;;;;;;;6272714;22;20004;-93
2022/01/08 04:20:02;;;;;;;37.22;19.08;;;;;;;;;;6272504;22;20046;-93
2022/01/08 04:22:29;;;;;;;37.83;20.27;;;;;;;;;;6272429;22;20015;-92
2022/01/08 04:24:56;;;;;;;36.38;19.73;;;;;;;;;;6272013;22;20184;-93
2022/01/08 04:27:23;;;;;;;36.72;19.77;;;;;;;;;;6272261;22;20019;-93
2022/01/08 04:29:50;;;;;;;35.92;18.90;;;;;;;;;;6272884;22;20011;-93
2022/01/08 04:32:16;;;;;;;32.50;18.15;;;;;;;;;;6272087;22;20027;-94
2022/01/08 04:34:43;;;;;;;44.28;21.10;;;;;;;;;;6272284;22;20008;-95
2022/01/08 04:37:10;;;;;;;42.10;20.40;;;;;;;;;;6271797;22;20024;-94
2022/01/08 04:39:37;;;;;;;37.15;21.52;;;;;;;;;;6271776;22;20008;-95
2022/01/08 04:42:05;;;;;;;39.13;19.52;;;;;;;;;;6271590;22;20046;-94
2022/01/08 04:44:32;;;;;;;36.35;21.02;;;;;;;;;;6271466;22;20035;-95
2022/01/08 04:46:58;;;;;;;39.63;20.60;;;;;;;;;;6271364;22;20011;-95
2022/01/08 04:49:25;;;;;;;41.28;20.20;;;;;;;;;;6271523;22;20020;-95
2022/01/08 04:51:53;;;;;;;39.95;21.98;;;;;;;;;;6271655;22;20008;-95
2022/01/08 04:54:21;;;;;;;46.38;24.60;;;;;;;;;;6272920;22;20020;-94
2022/01/08 04:56:51;;;;;;;45.50;23.83;;;;;;;;;;6272314;22;20028;-94
2022/01/08 04:59:18;;;;;;;44.25;24.50;;;;;;;;;;6273004;22;20060;-94
2022/01/08 05:01:45;;;;;;;44.22;23.65;;;;;;;;;;6272499;22;20008;-94
2022/01/08 05:04:12;;;;;;;41.22;22.98;;;;;;;;;;6272290;22;20035;-94
2022/01/08 05:06:42;;;;;;;49.35;25.77;;;;;;;;;;6272536;22;20012;-94
2022/01/08 05:09:08;;;;;;;45.88;26.05;;;;;;;;;;6272763;22;20026;-93
2022/01/08 05:11:36;;;;;;;47.50;24.60;;;;;;;;;;6272120;22;20042;-95
2022/01/08 05:14:03;;;;;;;50.03;25.95;;;;;;;;;;6271282;23;20020;-95
2022/01/08 05:16:30;;;;;;;45.33;25.67;;;;;;;;;;6247783;22;20038;-94
2022/01/08 05:18:58;;;;;;;47.03;25.98;;;;;;;;;;6271871;22;20020;-95
2022/01/08 05:21:27;;;;;;;51.67;26.95;;;;;;;;;;6271468;22;20030;-95
2022/01/08 05:23:55;;;;;;;52.80;25.77;;;;;;;;;;6271209;22;20046;-94
2022/01/08 05:26:24;;;;;;;41.25;23.23;;;;;;;;;;6271156;22;20004;-94
2022/01/08 05:28:51;;;;;;;48.22;24.60;;;;;;;;;;6271497;22;20020;-94
2022/01/08 05:31:22;;;;;;;51.88;26.98;;;;;;;;;;6271933;22;20008;-93
2022/01/08 05:33:50;;;;;;;49.55;24.67;;;;;;;;;;6271903;22;20014;-94
2022/01/08 05:36:16;;;;;;;48.00;23.83;;;;;;;;;;6271947;22;20035;-94
2022/01/08 05:38:46;;;;;;;42.42;23.20;;;;;;;;;;6270511;22;20020;-93
2022/01/08 05:41:13;;;;;;;38.30;23.58;;;;;;;;;;6270339;22;20028;-94
2022/01/08 05:43:49;;;;;;;37.40;22.08;;;;;;;;;;6271574;22;20008;-93
2022/01/08 05:46:16;;;;;;;42.17;22.58;;;;;;;;;;6271153;22;20022;-94
2022/01/08 05:48:43;;;;;;;41.22;23.00;;;;;;;;;;6271520;22;20021;-93
2022/01/08 05:51:11;;;;;;;46.30;22.73;;;;;;;;;;6256697;22;20089;-95
2022/01/08 05:53:43;;;;;;;43.58;23.27;;;;;;;;;;6217461;22;20024;-94
2022/01/08 05:56:11;;;;;;;40.88;22.70;;;;;;;;;;6216098;22;20024;-94
2022/01/08 05:58:40;;;;;;;50.15;24.20;;;;;;;;;;6215850;22;20029;-94
2022/01/08 06:01:09;;;;;;;44.63;23.90;;;;;;;;;;6216179;22;20016;-94
2022/01/08 06:03:37;;;;;;;49.10;24.83;;;;;;;;;;6218440;22;20013;-94
2022/01/08 06:06:04;;;;;;;42.33;24.02;;;;;;;;;;6217720;22;20009;-93
2022/01/08 06:08:31;;;;;;;46.83;24.15;;;;;;;;;;6218236;22;20012;-94
2022/01/08 06:11:00;;;;;;;42.85;24.27;;;;;;;;;;6218336;22;20009;-94
2022/01/08 06:13:30;;;;;;;46.97;25.50;;;;;;;;;;6218105;22;20015;-94
2022/01/08 06:16:06;;;;;;;48.63;24.88;;;;;;;;;;6220350;22;20017;-94
2022/01/08 06:18:33;;;;;;;50.13;23.92;;;;;;;;;;6218000;22;20009;-94
2022/01/08 06:21:01;;;;;;;40.03;22.92;;;;;;;;;;6218193;22;20039;-94
2022/01/08 06:23:28;;;;;;;45.92;23.98;;;;;;;;;;6218022;22;20035;-94
2022/01/08 06:25:56;;;;;;;42.95;24.73;;;;;;;;;;6217650;22;20012;-93
2022/01/08 06:28:22;;;;;;;48.65;24.63;;;;;;;;;;6217623;22;20020;-93
2022/01/08 06:30:49;;;;;;;39.30;22.02;;;;;;;;;;6217677;22;20024;-94
2022/01/08 06:33:40;;;;;;;39.00;23.48;;;;;;;;;;6218664;22;20064;-94
2022/01/08 06:36:08;;;;;;;40.60;23.00;;;;;;;;;;6218075;22;20012;-94
2022/01/08 06:38:40;;;;;;;46.20;23.42;;;;;;;;;;6219115;22;20008;-94
2022/01/08 06:41:06;;;;;;;41.33;22.95;;;;;;;;;;6217393;22;20012;-94
2022/01/08 06:43:33;;;;;;;43.20;23.42;;;;;;;;;;6216867;23;20008;-94
2022/01/08 06:46:00;;;;;;;46.00;23.33;;;;;;;;;;6216515;23;20047;-95
2022/01/08 06:48:28;;;;;;;41.55;23.70;;;;;;;;;;6216936;23;20011;-94
2022/01/08 06:50:55;;;;;;;48.38;24.90;;;;;;;;;;6217696;22;20029;-94
2022/01/08 06:53:21;;;;;;;41.58;23.25;;;;;;;;;;6266220;22;20066;-94
2022/01/08 07:02:59;;;;;;;41.85;23.63;;;;;;;;;;6273810;22;20068;-94
2022/01/08 07:05:27;;;;;;;43.45;22.77;;;;;;;;;;6272966;22;20039;-94
2022/01/08 07:07:54;;;;;;;43.55;24.05;;;;;;;;;;6272852;22;20020;-94
2022/01/08 07:10:47;;;;;;;37.17;22.77;;;;;;;;;;6273088;22;20043;-94
2022/01/08 07:13:13;;;;;;;35.95;22.02;;;;;;;;;;6272642;22;20004;-94
2022/01/08 07:15:40;;;;;;;37.03;21.02;;;;;;;;;;6272319;22;20012;-95
2022/01/08 07:18:08;;;;;;;38.13;20.33;;;;;;;;;;6273002;22;20016;-94
2022/01/08 07:20:51;;;;;;;36.00;20.80;;;;;;;;;;6272811;22;20012;-94
2022/01/08 07:23:19;;;;;;;32.30;20.15;;;;;;;;;;6272808;22;20028;-94
2022/01/08 07:25:46;;;;;;;35.72;19.25;;;;;;;;;;6272972;22;20014;-94
2022/01/08 07:28:13;;;;;;;33.63;20.05;;;;;;;;;;6272533;22;20024;-93
2022/01/08 07:30:40;;;;;;;33.15;19.50;;;;;;;;;;6272338;22;20027;-93
2022/01/08 07:33:14;;;;;;;38.72;19.80;;;;;;;;;;6272785;22;20031;-94
2022/01/08 07:35:45;;;;;;;35.47;19.77;;;;;;;;;;6272582;22;20027;-95
2022/01/08 07:38:22;;;;;;;31.90;18.33;;;;;;;;;;6272710;22;20034;-94
2022/01/08 07:40:52;;;;;;;35.70;19.33;;;;;;;;;;6269853;22;20019;-93
2022/01/08 07:43:20;;;;;;;38.90;19.63;;;;;;;;;;6268542;22;20035;-94
2022/01/08 07:45:49;;;;;;;33.33;19.95;;;;;;;;;;6265379;23;20024;-94
2022/01/08 07:48:16;;;;;;;40.53;20.08;;;;;;;;;;6267663;22;20012;-94
2022/01/08 07:50:43;;;;;;;43.65;21.33;;;;;;;;;;6270678;22;20020;-93
2022/01/08 07:53:24;;;;;;;32.35;20.42;;;;;;;;;;6268531;22;20012;-94
2022/01/08 07:55:51;;;;;;;35.22;20.48;;;;;;;;;;6267016;22;20024;-94
2022/01/08 08:01:54;;;;;;;38.58;21.85;;;;;;;;;;6267684;23;20055;-94
2022/01/08 08:04:33;;;;;;;42.22;22.25;;;;;;;;;;6268487;23;20105;-94
2022/01/08 08:06:59;;;;;;;43.95;23.77;;;;;;;;;;6268725;23;20016;-94
2022/01/08 08:09:26;;;;;;;38.83;23.23;;;;;;;;;;6267743;23;20151;-94
2022/01/08 08:11:54;;;;;;;40.90;24.52;;;;;;;;;;6267214;23;20121;-94
2022/01/08 08:14:21;;;;;;;37.28;20.55;;;;;;;;;;6267035;23;20023;-94
2022/01/08 08:16:47;;;;;;;36.45;20.77;;;;;;;;;;6264478;23;20024;-94
2022/01/08 08:19:25;;;;;;;30.92;19.45;;;;;;;;;;6262106;23;20046;-94
2022/01/08 08:21:52;;;;;;;33.88;17.95;;;;;;;;;;6264617;23;20024;-94
2022/01/08 08:24:21;;;;;;;32.10;17.92;;;;;;;;;;6265848;22;20018;-93
2022/01/08 08:26:55;;;;;;;31.60;18.23;;;;;;;;;;6267749;22;20024;-94
2022/01/08 08:29:22;;;;;;;27.42;15.90;;;;;;;;;;6261727;23;20024;-94
2022/01/08 08:31:50;;;;;;;24.52;16.50;;;;;;;;;;6263010;23;20071;-94
2022/01/08 08:34:27;;;;;;;23.30;14.40;;;;;;;;;;6263973;23;20047;-94
2022/01/08 08:36:55;;;;;;;29.95;15.38;;;;;;;;;;6267668;23;20021;-94
2022/01/08 08:39:22;;;;;;;27.70;14.65;;;;;;;;;;6267274;23;20020;-94
2022/01/08 08:42:09;;;;;;;22.55;15.05;;;;;;;;;;6266460;23;20020;-94
2022/01/08 08:44:36;;;;;;;25.05;14.73;;;;;;;;;;6263347;23;20197;-94
2022/01/08 08:47:10;;;;;;;25.17;14.30;;;;;;;;;;6264706;22;20012;-94
2022/01/08 08:49:48;;;;;;;27.95;13.25;;;;;;;;;;6264372;23;20028;-94
2022/01/08 08:52:16;;;;;;;21.67;13.00;;;;;;;;;;6264157;23;20024;-94
2022/01/08 08:54:47;;;;;;;21.10;13.02;;;;;;;;;;6266791;22;20020;-94
2022/01/08 08:57:16;;;;;;;22.95;13.40;;;;;;;;;;6265206;23;20024;-94
2022/01/08 08:59:43;;;;;;;20.08;12.35;;;;;;;;;;6263396;23;20024;-94
2022/01/08 09:02:15;;;;;;;20.70;12.10;;;;;;;;;;6264543;23;20080;-94
2022/01/08 09:04:46;;;;;;;20.48;12.65;;;;;;;;;;6263593;23;20031;-94
2022/01/08 09:07:14;;;;;;;16.65;10.75;;;;;;;;;;6262989;23;20032;-94
2022/01/08 09:09:45;;;;;;;17.23;11.23;;;;;;;;;;6262379;23;20031;-94
2022/01/08 09:12:15;;;;;;;18.67;11.90;;;;;;;;;;6263503;23;20024;-95
2022/01/08 09:14:43;;;;;;;20.33;12.10;;;;;;;;;;6263794;23;20035;-94
2022/01/08 09:17:13;;;;;;;15.63;9.48;;;;;;;;;;6266326;22;20028;-94
2022/01/08 09:19:41;;;;;;;16.10;10.35;;;;;;;;;;6262140;22;20038;-95
2022/01/08 09:22:08;;;;;;;20.77;11.23;;;;;;;;;;6267201;22;20047;-94
2022/01/08 09:24:40;;;;;;;17.58;10.60;;;;;;;;;;6262561;23;20047;-95
2022/01/08 09:27:09;;;;;;;16.48;10.32;;;;;;;;;;6261991;23;20024;-94
2022/01/08 09:29:37;;;;;;;23.05;11.23;;;;;;;;;;6265188;22;20036;-93
2022/01/08 09:32:11;;;;;;;16.20;10.45;;;;;;;;;;6267714;22;20012;-93
2022/01/08 09:34:40;;;;;;;19.80;10.40;;;;;;;;;;6268029;22;20064;-93
2022/01/08 09:37:11;;;;;;;19.80;10.18;;;;;;;;;;6267204;22;20023;-94
2022/01/08 09:39:42;;;;;;;15.70;10.15;;;;;;;;;;6270576;22;20004;-94
2022/01/08 09:42:11;;;;;;;18.88;9.60;;;;;;;;;;6270457;22;20034;-93
2022/01/08 09:44:43;;;;;;;17.60;9.93;;;;;;;;;;6268945;22;20028;-94
2022/01/08 09:47:30;;;;;;;16.30;9.77;;;;;;;;;;6269229;22;20020;-93
2022/01/08 09:49:59;;;;;;;14.00;9.40;;;;;;;;;;6270967;22;20012;-94
2022/01/08 09:52:30;;;;;;;15.55;9.32;;;;;;;;;;6267737;22;20040;-94
2022/01/08 09:55:31;;;;;;;16.15;8.80;;;;;;;;;;6266898;22;20032;-94
2022/01/08 09:58:01;;;;;;;13.38;9.07;;;;;;;;;;6268772;22;20035;-94
2022/01/08 10:00:32;;;;;;;17.80;9.60;;;;;;;;;;6269029;22;20012;-93
2022/01/08 10:03:31;;;;;;;15.88;8.60;;;;;;;;;;6268633;22;20014;-93
2022/01/08 10:06:02;;;;;;;12.57;8.57;;;;;;;;;;6263161;22;20028;-94
2022/01/08 10:08:46;;;;;;;11.95;8.18;;;;;;;;;;6264422;23;20023;-94
2022/01/08 10:11:25;;;;;;;19.05;8.57;;;;;;;;;;6268670;22;20039;-92
2022/01/08 10:14:14;;;;;;;13.77;8.57;;;;;;;;;;6267862;22;20066;-93
2022/01/08 10:17:16;;;;;;;16.98;8.90;;;;;;;;;;6263926;22;20072;-93
2022/01/08 10:19:44;;;;;;;16.58;9.27;;;;;;;;;;6268533;22;20046;-94
2022/01/08 10:22:30;;;;;;;16.42;9.05;;;;;;;;;;6258324;22;20024;-94
2022/01/08 10:25:11;;;;;;;13.43;8.70;;;;;;;;;;6260511;23;20020;-94
2022/01/08 10:27:39;;;;;;;16.25;8.23;;;;;;;;;;6262771;23;20008;-93
2022/01/08 10:30:08;;;;;;;16.33;8.38;;;;;;;;;;6260032;23;20167;-94
2022/01/08 10:32:35;;;;;;;12.23;8.10;;;;;;;;;;6264128;23;20218;-94
2022/01/08 10:35:25;;;;;;;15.65;7.88;;;;;;;;;;6267166;23;20024;-94
2022/01/08 10:38:01;;;;;;;17.15;7.93;;;;;;;;;;6269611;22;20012;-94
2022/01/08 10:44:09;;;;;;;18.30;7.82;;;;;;;;;;6271907;22;20039;-94
2022/01/08 10:47:06;;;;;;;15.82;7.78;;;;;;;;;;6270228;22;20008;-94
2022/01/08 10:49:41;;;;;;;20.13;7.93;;;;;;;;;;6269500;22;20035;-94
2022/01/08 10:52:11;;;;;;;14.18;7.85;;;;;;;;;;6264520;23;20035;-94
2022/01/08 11:01:37;;;;;;;11.60;7.45;;;;;;;;;;6267505;22;20019;-94
2022/01/08 11:04:10;;;;;;;14.90;8.00;;;;;;;;;;6264177;23;20459;-94
2022/01/08 11:06:52;;;;;;;16.02;8.05;;;;;;;;;;6262947;23;20020;-94
2022/01/08 11:09:21;;;;;;;18.50;8.25;;;;;;;;;;6261800;23;20020;-94
2022/01/08 11:11:54;;;;;;;14.50;8.93;;;;;;;;;;6269649;22;20024;-93
2022/01/08 11:17:17;;;;;;;16.38;8.27;;;;;;;;;;6261290;23;20047;-93
2022/01/08 11:20:06;;;;;;;22.17;9.45;;;;;;;;;;6257619;23;20043;-93
2022/01/08 11:22:36;;;;;;;21.75;9.88;;;;;;;;;;6258568;23;20047;-93
2022/01/08 11:25:36;;;;;;;19.95;9.75;;;;;;;;;;6256561;23;20024;-93
2022/01/08 11:28:17;;;;;;;17.70;8.65;;;;;;;;;;6192792;23;20068;-93
2022/01/08 11:31:01;;;;;;;19.30;9.10;;;;;;;;;;6256952;23;20088;-93
2022/01/08 11:33:34;;;;;;;19.58;9.13;;;;;;;;;;6259129;23;20020;-94
2022/01/08 11:36:08;;;;;;;18.65;8.82;;;;;;;;;;6258981;23;20236;-93
2022/01/08 11:38:39;;;;;;;17.45;8.65;;;;;;;;;;6257743;23;20185;-94
2022/01/08 11:41:07;;;;;;;18.23;8.02;;;;;;;;;;6259493;23;20020;-94
2022/01/08 11:43:36;;;;;;;16.20;8.65;;;;;;;;;;6257082;23;20031;-94
2022/01/08 11:46:37;;;;;;;14.00;8.15;;;;;;;;;;6254587;23;20024;-94
2022/01/08 11:49:06;;;;;;;17.45;9.00;;;;;;;;;;6257427;23;20020;-93
2022/01/08 11:51:35;;;;;;;18.33;9.27;;;;;;;;;;6258872;22;20232;-94
2022/01/08 11:54:06;;;;;;;17.00;8.63;;;;;;;;;;6258100;22;20028;-94
2022/01/08 11:56:43;;;;;;;14.75;7.95;;;;;;;;;;6259654;22;20008;-94
2022/01/08 11:59:13;;;;;;;12.85;7.82;;;;;;;;;;6264115;22;20019;-94
2022/01/08 12:01:43;;;;;;;21.15;8.30;;;;;;;;;;6256446;23;20012;-93
2022/01/08 12:04:40;;;;;;;18.17;8.02;;;;;;;;;;6228416;23;20206;-93
2022/01/08 12:07:35;;;;;;;19.38;7.80;;;;;;;;;;6253733;23;20020;-93
2022/01/08 12:10:03;;;;;;;19.33;7.53;;;;;;;;;;6267791;22;20012;-94
2022/01/08 12:12:47;;;;;;;15.07;8.25;;;;;;;;;;6264420;22;20024;-93
2022/01/08 12:15:41;;;;;;;17.55;8.07;;;;;;;;;;6263909;22;20032;-94
2022/01/08 12:18:10;;;;;;;15.05;8.07;;;;;;;;;;6264936;22;20016;-94
2022/01/08 12:20:54;;;;;;;14.45;8.40;;;;;;;;;;6265812;22;20008;-94
2022/01/08 12:23:36;;;;;;;13.85;7.50;;;;;;;;;;6262228;22;20031;-94
2022/01/08 12:29:45;;;;;;;17.55;8.48;;;;;;;;;;6262292;23;20006;-94
2022/01/08 12:32:20;;;;;;;21.38;7.55;;;;;;;;;;6267115;23;20050;-94
2022/01/08 12:34:51;;;;;;;18.58;7.78;;;;;;;;;;6268449;22;20035;-94
2022/01/08 12:37:43;;;;;;;14.02;7.18;;;;;;;;;;6267704;22;20004;-95
2022/01/08 12:40:32;;;;;;;18.00;7.45;;;;;;;;;;6263515;22;20024;-94
2022/01/08 12:43:26;;;;;;;14.05;7.20;;;;;;;;;;6264295;22;20016;-93
2022/01/08 12:46:10;;;;;;;18.80;8.10;;;;;;;;;;6267358;22;20008;-94
2022/01/08 12:48:38;;;;;;;20.30;8.35;;;;;;;;;;6260957;23;20024;-94
2022/01/08 12:51:08;;;;;;;18.90;8.77;;;;;;;;;;6257721;23;20218;-94
2022/01/08 12:53:36;;;;;;;17.23;8.07;;;;;;;;;;6259864;23;20113;-94
2022/01/08 12:56:12;;;;;;;18.10;9.18;;;;;;;;;;6257584;23;20065;-94
2022/01/08 12:58:45;;;;;;;20.05;10.10;;;;;;;;;;6257816;23;20078;-94
2022/01/08 13:01:17;;;;;;;18.02;8.57;;;;;;;;;;6258944;23;20024;-94
2022/01/08 13:03:59;;;;;;;16.10;8.15;;;;;;;;;;6256129;23;20055;-94
2022/01/08 13:06:28;;;;;;;16.75;7.78;;;;;;;;;;6257336;23;20024;-94
2022/01/08 13:08:57;;;;;;;24.67;18.98;;;;;;;;;;6257415;23;20180;-94
2022/01/08 13:11:32;;;;;;;19.33;11.35;;;;;;;;;;6259040;23;20020;-94
2022/01/08 13:14:07;;;;;;;18.25;10.30;;;;;;;;;;6261621;23;20035;-94
2022/01/08 13:16:52;;;;;;;19.63;9.55;;;;;;;;;;6264161;23;20095;-94
2022/01/08 13:19:21;;;;;;;24.63;9.88;;;;;;;;;;6264767;23;20076;-94
2022/01/08 13:21:53;;;;;;;21.70;8.43;;;;;;;;;;6265093;22;20020;-94
2022/01/08 13:24:27;;;;;;;17.95;9.18;;;;;;;;;;6265123;23;20060;-94
2022/01/08 13:27:15;;;;;;;14.80;8.23;;;;;;;;;;6263378;23;20117;-94
2022/01/08 13:29:51;;;;;;;20.88;7.95;;;;;;;;;;6263662;22;20035;-94
2022/01/08 13:32:20;;;;;;;17.52;8.40;;;;;;;;;;6269110;22;20064;-94
2022/01/08 13:34:59;;;;;;;21.45;9.40;;;;;;;;;;6261133;23;20024;-94
2022/01/08 13:37:29;;;;;;;18.10;8.98;;;;;;;;;;6262064;23;20036;-94
2022/01/08 13:40:01;;;;;;;19.85;10.57;;;;;;;;;;6266170;22;20018;-94
2022/01/08 13:42:36;;;;;;;28.10;11.15;;;;;;;;;;6268086;22;20182;-94
2022/01/08 13:45:22;;;;;;;24.27;10.63;;;;;;;;;;6267961;22;20221;-95
2022/01/08 13:47:58;;;;;;;22.83;11.20;;;;;;;;;;6269466;22;20024;-95
2022/01/08 16:12:19;;;;;;;38.53;17.90;;;;;;;;;;6243009;22;20051;-93
2022/01/08 16:14:47;;;;;;;40.80;17.20;;;;;;;;;;6263599;23;20024;-95
2022/01/08 16:17:19;;;;;;;37.13;16.63;;;;;;;;;;6264849;23;20008;-93
2022/01/08 16:19:47;;;;;;;40.25;18.50;;;;;;;;;;6265660;22;20084;-94
2022/01/08 16:22:16;;;;;;;40.97;19.58;;;;;;;;;;6268271;23;20020;-94
2022/01/08 16:24:45;;;;;;;51.70;18.50;;;;;;;;;;6266628;23;20020;-95
2022/01/08 16:27:12;;;;;;;37.80;16.52;;;;;;;;;;6266347;23;20103;-95
2022/01/08 16:29:42;;;;;;;37.45;16.63;;;;;;;;;;6266297;22;20058;-94
2022/01/08 16:32:37;;;;;;;29.13;13.57;;;;;;;;;;6267057;23;20031;-95
2022/01/08 16:35:12;;;;;;;27.05;13.63;;;;;;;;;;6267546;23;20032;-95
2022/01/08 16:37:48;;;;;;;35.75;13.43;;;;;;;;;;6266872;23;20012;-95
2022/01/08 16:40:18;;;;;;;24.10;13.10;;;;;;;;;;6266511;23;20020;-95
2022/01/08 16:42:49;;;;;;;26.25;13.27;;;;;;;;;;6267947;22;20024;-95
2022/01/08 16:45:24;;;;;;;24.40;10.90;;;;;;;;;;6266633;23;20031;-95
2022/01/08 16:50:28;;;;;;;21.52;11.48;;;;;;;;;;6241198;23;20103;-95
2022/01/08 16:52:58;;;;;;;20.77;11.00;;;;;;;;;;6215194;23;20008;-95
2022/01/08 16:55:33;;;;;;;22.42;11.50;;;;;;;;;;6217892;23;20043;-95
2022/01/08 16:58:13;;;;;;;27.85;11.25;;;;;;;;;;6216514;23;20013;-96
2022/01/08 17:00:58;;;;;;;16.15;8.98;;;;;;;;;;6215931;22;20021;-94
2022/01/08 17:03:33;;;;;;;24.42;9.38;;;;;;;;;;6215237;23;20033;-95
2022/01/08 17:06:01;;;;;;;20.40;9.18;;;;;;;;;;6217753;23;20013;-93
2022/01/08 17:15:32;;;;;;;12.88;7.78;;;;;;;;;;6243989;23;20015;-94
2022/01/08 17:18:12;;;;;;;16.42;7.25;;;;;;;;;;6221283;23;20015;-94
2022/01/08 17:20:46;;;;;;;19.30;8.18;;;;;;;;;;6219041;23;20012;-94
2022/01/08 17:23:27;;;;;;;13.77;6.40;;;;;;;;;;6220183;23;20016;-94
2022/01/08 17:25:56;;;;;;;9.00;4.90;;;;;;;;;;6218460;23;20027;-94
2022/01/08 17:48:44;;;;;;;11.13;5.20;;;;;;;;;;6304025;22;20059;-92
2022/01/08 17:51:23;;;;;;;13.73;4.70;;;;;;;;;;6281164;22;20030;-93
2022/01/08 17:53:51;;;;;;;12.02;3.70;;;;;;;;;;6304081;22;20008;-93
2022/01/08 17:57:00;;;;;;;8.80;3.17;;;;;;;;;;6277276;22;20008;-93
2022/01/08 17:59:32;;;;;;;9.23;3.95;;;;;;;;;;6280898;22;20023;-94
2022/01/08 18:02:04;;;;;;;6.40;3.35;;;;;;;;;;6281661;22;20046;-93
2022/01/08 18:04:45;;;;;;;8.63;4.05;;;;;;;;;;6282236;22;20063;-94
2022/01/08 18:07:27;;;;;;;7.07;3.67;;;;;;;;;;6279173;22;20012;-94
2022/01/08 18:10:09;;;;;;;11.38;4.20;;;;;;;;;;6300478;22;20023;-95
2022/01/08 18:12:50;;;;;;;8.23;3.85;;;;;;;;;;6278696;22;20030;-94
2022/01/08 18:15:24;;;;;;;9.70;4.03;;;;;;;;;;6281974;22;20012;-93
2022/01/08 18:18:08;;;;;;;9.93;4.68;;;;;;;;;;6282203;22;20038;-94
2022/01/08 18:34:22;;;;;;;12.10;4.70;;;;;;;;;;6306616;22;20033;-94
2022/01/08 18:37:04;;;;;;;11.15;5.35;;;;;;;;;;6281113;22;20008;-95
2022/01/08 18:43:14;;;;;;;;;;;;;;;;;;6307131;22;20006;-94
2022/01/08 18:45:55;;;;;;;11.55;4.70;;;;;;;;;;6304507;22;19903;-94
2022/01/08 18:48:41;;;;;;;11.35;5.72;;;;;;;;;;6300564;22;20019;-94
2022/01/08 18:51:19;;;;;;;13.45;4.63;;;;;;;;;;6281621;22;20004;-93
2022/01/08 19:07:37;;;;;;;12.60;5.00;;;;;;;;;;6268065;22;20000;-94
2022/01/08 19:10:06;;;;;;;9.75;5.15;;;;;;;;;;6247967;22;20398;-94
2022/01/08 19:15:27;;;;;;;9.07;4.65;;;;;;;;;;6271424;22;20008;-94
2022/01/08 19:18:06;;;;;;;10.60;4.57;;;;;;;;;;6248776;22;20008;-94
2022/01/08 19:20:33;;;;;;;9.93;4.35;;;;;;;;;;6247244;22;20064;-94
2022/01/08 19:23:12;;;;;;;8.13;4.97;;;;;;;;;;6248603;22;20068;-93
2022/01/08 19:25:46;;;;;;;11.07;4.90;;;;;;;;;;6248873;22;20038;-94
2022/01/08 19:28:16;;;;;;;8.50;5.07;;;;;;;;;;6248083;22;20035;-94
2022/01/08 19:30:45;;;;;;;12.43;5.03;;;;;;;;;;6248049;22;20011;-94
2022/01/08 19:40:14;;;;;;;11.65;4.68;;;;;;;;;;6274028;22;20228;-94